SKW6006 KTUS-KSFO
Flight info
| Callsign | SKW6006 |
|---|---|
| Flight time | 1h 39m |
| Altitude | 32000 |
| Route | WLDKT4 GBN J104 CULTS J212 DECAS J65 PMD J6 AVE MAKRS SERFR SERFR4 |
| Aircraft | E75L/M-SDE3GILORVW/S |
Departure
| Time | 2026-04-22 01:26 |
|---|---|
| Airport | Tucson International Airport (KTUS) |
Arrival
| Time | 2026-04-22 03:05 |
|---|---|
| Airport | San Francisco International Airport (KSFO) |
| Time | Latitude | Longitude | Altitude | Speed | Heading |
|---|---|---|---|---|---|
| 2026-04-22 01:10 | 32.11931 | -110.93675 | 2582 ft | 0 kts | 257° |
| 2026-04-22 01:12 | 32.11933 | -110.93666 | 2581 ft | 4 kts | 259° |
| 2026-04-22 01:12 | 32.11941 | -110.93637 | 2582 ft | 4 kts | 232° |
| 2026-04-22 01:12 | 32.11944 | -110.93615 | 2582 ft | 4 kts | 281° |
| 2026-04-22 01:12 | 32.11933 | -110.93587 | 2582 ft | 4 kts | 309° |
| 2026-04-22 01:13 | 32.11914 | -110.93565 | 2582 ft | 4 kts | 321° |
| 2026-04-22 01:13 | 32.11898 | -110.93549 | 2574 ft | 4 kts | 321° |
| 2026-04-22 01:13 | 32.11878 | -110.93540 | 2582 ft | 3 kts | 355° |
| 2026-04-22 01:13 | 32.11853 | -110.93546 | 2582 ft | 4 kts | 30° |
| 2026-04-22 01:14 | 32.11833 | -110.93566 | 2582 ft | 4 kts | 49° |
| 2026-04-22 01:14 | 32.11814 | -110.93589 | 2582 ft | 4 kts | 43° |
| 2026-04-22 01:14 | 32.11795 | -110.93612 | 2582 ft | 4 kts | 46° |
| 2026-04-22 01:14 | 32.11776 | -110.93635 | 2582 ft | 4 kts | 45° |
| 2026-04-22 01:15 | 32.11757 | -110.93657 | 2575 ft | 4 kts | 45° |
| 2026-04-22 01:15 | 32.11737 | -110.93676 | 2573 ft | 4 kts | 48° |
| 2026-04-22 01:15 | 32.11733 | -110.93701 | 2575 ft | 4 kts | 92° |
| 2026-04-22 01:15 | 32.11739 | -110.93732 | 2574 ft | 4 kts | 113° |
| 2026-04-22 01:16 | 32.11753 | -110.93758 | 2572 ft | 4 kts | 132° |
| 2026-04-22 01:16 | 32.11768 | -110.93781 | 2570 ft | 4 kts | 89° |
| 2026-04-22 01:16 | 32.11764 | -110.93789 | 2569 ft | 1 kts | 45° |
| 2026-04-22 01:20 | 32.11765 | -110.93784 | 2569 ft | 1 kts | 87° |
| 2026-04-22 01:20 | 32.11746 | -110.93780 | 2565 ft | 10 kts | 200° |
| 2026-04-22 01:20 | 32.11662 | -110.93755 | 2566 ft | 14 kts | 135° |
| 2026-04-22 01:20 | 32.11596 | -110.93674 | 2567 ft | 14 kts | 132° |
| 2026-04-22 01:21 | 32.11529 | -110.93594 | 2568 ft | 14 kts | 135° |
| 2026-04-22 01:21 | 32.11466 | -110.93520 | 2571 ft | 13 kts | 136° |
| 2026-04-22 01:21 | 32.11397 | -110.93440 | 2571 ft | 15 kts | 135° |
| 2026-04-22 01:21 | 32.11307 | -110.93336 | 2568 ft | 20 kts | 135° |
| 2026-04-22 01:22 | 32.11202 | -110.93214 | 2565 ft | 23 kts | 135° |
| 2026-04-22 01:22 | 32.11082 | -110.93075 | 2565 ft | 25 kts | 136° |
| 2026-04-22 01:22 | 32.10960 | -110.92932 | 2565 ft | 25 kts | 135° |
| 2026-04-22 01:22 | 32.10837 | -110.92786 | 2565 ft | 24 kts | 135° |
| 2026-04-22 01:23 | 32.10718 | -110.92647 | 2568 ft | 24 kts | 135° |
| 2026-04-22 01:23 | 32.10600 | -110.92508 | 2570 ft | 23 kts | 135° |
| 2026-04-22 01:23 | 32.10481 | -110.92368 | 2568 ft | 25 kts | 135° |
| 2026-04-22 01:23 | 32.10370 | -110.92238 | 2568 ft | 18 kts | 134° |
| 2026-04-22 01:24 | 32.10288 | -110.92198 | 2564 ft | 12 kts | 212° |
| 2026-04-22 01:24 | 32.10224 | -110.92275 | 2563 ft | 11 kts | 245° |
| 2026-04-22 01:24 | 32.10241 | -110.92333 | 2564 ft | 5 kts | 314° |
| 2026-04-22 01:24 | 32.10266 | -110.92363 | 2565 ft | 12 kts | 315° |
| 2026-04-22 01:25 | 32.10484 | -110.92629 | 2568 ft | 77 kts | 314° |
| 2026-04-22 01:25 | 32.11008 | -110.93238 | 2563 ft | 133 kts | 313° |
| 2026-04-22 01:25 | 32.11748 | -110.94123 | 2759 ft | 162 kts | 311° |
| 2026-04-22 01:26 | 32.12472 | -110.95001 | 3311 ft | 168 kts | 309° |
| 2026-04-22 01:26 | 32.13279 | -110.96036 | 4139 ft | 172 kts | 309° |
| 2026-04-22 01:26 | 32.14106 | -110.97111 | 4888 ft | 184 kts | 307° |
| 2026-04-22 01:26 | 32.14991 | -110.98325 | 5501 ft | 209 kts | 310° |
| 2026-04-22 01:27 | 32.16059 | -110.99595 | 6210 ft | 233 kts | 311° |
| 2026-04-22 01:27 | 32.17288 | -111.00997 | 6980 ft | 256 kts | 314° |
| 2026-04-22 01:27 | 32.18663 | -111.02426 | 7928 ft | 271 kts | 315° |
| 2026-04-22 01:27 | 32.20095 | -111.03982 | 8788 ft | 289 kts | 313° |
| 2026-04-22 01:28 | 32.21567 | -111.05668 | 9733 ft | 297 kts | 312° |
| 2026-04-22 01:28 | 32.22773 | -111.07514 | 10509 ft | 306 kts | 295° |
| 2026-04-22 01:28 | 32.23332 | -111.09969 | 11180 ft | 315 kts | 271° |
| 2026-04-22 01:28 | 32.23384 | -111.12537 | 12400 ft | 308 kts | 269° |
| 2026-04-22 01:29 | 32.23497 | -111.15047 | 13632 ft | 306 kts | 274° |
| 2026-04-22 01:29 | 32.23960 | -111.17528 | 14483 ft | 314 kts | 285° |
| 2026-04-22 01:29 | 32.24559 | -111.20060 | 15101 ft | 327 kts | 280° |
| 2026-04-22 01:29 | 32.24990 | -111.22737 | 15773 ft | 335 kts | 278° |
| 2026-04-22 01:30 | 32.25373 | -111.25474 | 16573 ft | 340 kts | 277° |
| 2026-04-22 01:30 | 32.25737 | -111.28246 | 17457 ft | 343 kts | 277° |
| 2026-04-22 01:30 | 32.26114 | -111.31035 | 18311 ft | 345 kts | 277° |
| 2026-04-22 01:30 | 32.26494 | -111.33842 | 19120 ft | 347 kts | 277° |
| 2026-04-22 01:31 | 32.26880 | -111.36674 | 19880 ft | 350 kts | 277° |
| 2026-04-22 01:31 | 32.27268 | -111.39533 | 20619 ft | 354 kts | 277° |
| 2026-04-22 01:31 | 32.27659 | -111.42419 | 21356 ft | 357 kts | 278° |
| 2026-04-22 01:31 | 32.28077 | -111.45323 | 22031 ft | 361 kts | 282° |
| 2026-04-22 01:32 | 32.29084 | -111.48056 | 22685 ft | 367 kts | 300° |
| 2026-04-22 01:32 | 32.30497 | -111.50580 | 23302 ft | 370 kts | 301° |
| 2026-04-22 01:32 | 32.31921 | -111.53128 | 23895 ft | 373 kts | 301° |
| 2026-04-22 01:32 | 32.33358 | -111.55695 | 24457 ft | 376 kts | 301° |
| 2026-04-22 01:33 | 32.34806 | -111.58281 | 25019 ft | 378 kts | 301° |
| 2026-04-22 01:33 | 32.36262 | -111.60882 | 25553 ft | 381 kts | 301° |
| 2026-04-22 01:33 | 32.37732 | -111.63504 | 26083 ft | 384 kts | 301° |
| 2026-04-22 01:33 | 32.39210 | -111.66142 | 26620 ft | 386 kts | 301° |
| 2026-04-22 01:34 | 32.40698 | -111.68795 | 27113 ft | 389 kts | 301° |
| 2026-04-22 01:34 | 32.42194 | -111.71466 | 27623 ft | 390 kts | 301° |
| 2026-04-22 01:34 | 32.43695 | -111.74145 | 28091 ft | 392 kts | 301° |
| 2026-04-22 01:34 | 32.45189 | -111.76810 | 28554 ft | 394 kts | 301° |
| 2026-04-22 01:35 | 32.46708 | -111.79522 | 28970 ft | 396 kts | 301° |
| 2026-04-22 01:35 | 32.48235 | -111.82248 | 29397 ft | 398 kts | 301° |
| 2026-04-22 01:35 | 32.49770 | -111.84989 | 29777 ft | 400 kts | 301° |
| 2026-04-22 01:35 | 32.51314 | -111.87746 | 30177 ft | 402 kts | 301° |
| 2026-04-22 01:36 | 32.52862 | -111.90514 | 30565 ft | 403 kts | 301° |
| 2026-04-22 01:36 | 32.54418 | -111.93295 | 30911 ft | 406 kts | 301° |
| 2026-04-22 01:36 | 32.55981 | -111.96090 | 31230 ft | 408 kts | 301° |
| 2026-04-22 01:36 | 32.57552 | -111.98899 | 31548 ft | 410 kts | 301° |
| 2026-04-22 01:37 | 32.59127 | -112.01718 | 31867 ft | 411 kts | 301° |
| 2026-04-22 01:37 | 32.60712 | -112.04555 | 32013 ft | 417 kts | 301° |
| 2026-04-22 01:37 | 32.63970 | -112.10377 | 32031 ft | 429 kts | 301° |
| 2026-04-22 01:38 | 32.67292 | -112.16322 | 32030 ft | 434 kts | 301° |
| 2026-04-22 01:38 | 32.70634 | -112.22313 | 31964 ft | 436 kts | 301° |
| 2026-04-22 01:39 | 32.73976 | -112.28313 | 31949 ft | 436 kts | 301° |
| 2026-04-22 01:39 | 32.77321 | -112.34330 | 31950 ft | 436 kts | 301° |
| 2026-04-22 01:40 | 32.80658 | -112.40344 | 31934 ft | 436 kts | 300° |
| 2026-04-22 01:40 | 32.83991 | -112.46360 | 31942 ft | 436 kts | 300° |
| 2026-04-22 01:41 | 32.87306 | -112.52352 | 31938 ft | 436 kts | 300° |
| 2026-04-22 01:41 | 32.90636 | -112.58380 | 31936 ft | 436 kts | 300° |
| 2026-04-22 01:42 | 32.93966 | -112.64418 | 31930 ft | 436 kts | 300° |
| 2026-04-22 01:42 | 32.97667 | -112.70165 | 31953 ft | 441 kts | 308° |
| 2026-04-22 01:43 | 33.01779 | -112.75578 | 31935 ft | 440 kts | 308° |
| 2026-04-22 01:43 | 33.05890 | -112.80998 | 31937 ft | 441 kts | 308° |
| 2026-04-22 01:44 | 33.09994 | -112.86419 | 31932 ft | 440 kts | 308° |
| 2026-04-22 01:44 | 33.14100 | -112.91846 | 31932 ft | 440 kts | 308° |
| 2026-04-22 01:45 | 33.18204 | -112.97282 | 31936 ft | 440 kts | 308° |
| 2026-04-22 01:45 | 33.22306 | -113.02719 | 31927 ft | 441 kts | 308° |
| 2026-04-22 01:46 | 33.26405 | -113.08162 | 31930 ft | 441 kts | 307° |
| 2026-04-22 01:46 | 33.30506 | -113.13612 | 31928 ft | 441 kts | 307° |
| 2026-04-22 01:47 | 33.34601 | -113.19069 | 31930 ft | 441 kts | 307° |
| 2026-04-22 01:47 | 33.38698 | -113.24535 | 31937 ft | 441 kts | 307° |
| 2026-04-22 01:48 | 33.42768 | -113.29972 | 31937 ft | 442 kts | 307° |
| 2026-04-22 01:48 | 33.46867 | -113.35457 | 31917 ft | 442 kts | 307° |
| 2026-04-22 01:49 | 33.50930 | -113.40964 | 31926 ft | 442 kts | 306° |
| 2026-04-22 01:49 | 33.54996 | -113.46486 | 31926 ft | 442 kts | 306° |
| 2026-04-22 01:50 | 33.58454 | -113.52423 | 31925 ft | 428 kts | 286° |
| 2026-04-22 01:50 | 33.59895 | -113.59297 | 31937 ft | 425 kts | 279° |
| 2026-04-22 01:51 | 33.61198 | -113.66200 | 31918 ft | 425 kts | 279° |
| 2026-04-22 01:51 | 33.62490 | -113.73104 | 31922 ft | 424 kts | 279° |
| 2026-04-22 01:52 | 33.63776 | -113.80002 | 31929 ft | 425 kts | 278° |
| 2026-04-22 01:52 | 33.65057 | -113.86910 | 31929 ft | 423 kts | 278° |
| 2026-04-22 01:53 | 33.66328 | -113.93823 | 31929 ft | 424 kts | 278° |
| 2026-04-22 01:53 | 33.67597 | -114.00737 | 31917 ft | 424 kts | 278° |
| 2026-04-22 01:54 | 33.68859 | -114.07626 | 31916 ft | 423 kts | 278° |
| 2026-04-22 01:54 | 33.70113 | -114.14521 | 31918 ft | 423 kts | 278° |
| 2026-04-22 01:55 | 33.71358 | -114.21374 | 31921 ft | 423 kts | 278° |
| 2026-04-22 01:55 | 33.72608 | -114.28274 | 31916 ft | 422 kts | 278° |
| 2026-04-22 01:56 | 33.73851 | -114.35168 | 31914 ft | 422 kts | 278° |
| 2026-04-22 01:56 | 33.75091 | -114.42063 | 31913 ft | 422 kts | 278° |
| 2026-04-22 01:57 | 33.76325 | -114.48946 | 31920 ft | 421 kts | 278° |
| 2026-04-22 01:57 | 33.77349 | -114.55843 | 31947 ft | 417 kts | 271° |
| 2026-04-22 01:58 | 33.77778 | -114.62808 | 31915 ft | 418 kts | 270° |
| 2026-04-22 01:58 | 33.78188 | -114.69766 | 31910 ft | 417 kts | 270° |
| 2026-04-22 01:59 | 33.78591 | -114.76708 | 31918 ft | 416 kts | 270° |
| 2026-04-22 01:59 | 33.78988 | -114.83647 | 31917 ft | 416 kts | 270° |
| 2026-04-22 02:00 | 33.79380 | -114.90583 | 31915 ft | 415 kts | 270° |
| 2026-04-22 02:00 | 33.79770 | -114.97502 | 31919 ft | 414 kts | 270° |
| 2026-04-22 02:01 | 33.80089 | -115.03238 | 31920 ft | 413 kts | 270° |
| 2026-04-22 02:01 | 33.80466 | -115.10133 | 31922 ft | 413 kts | 270° |
| 2026-04-22 02:02 | 33.80840 | -115.17034 | 31929 ft | 413 kts | 269° |
| 2026-04-22 02:02 | 33.81210 | -115.23915 | 31925 ft | 411 kts | 269° |
| 2026-04-22 02:03 | 33.81573 | -115.30775 | 31942 ft | 411 kts | 269° |
| 2026-04-22 02:03 | 33.81936 | -115.37633 | 31936 ft | 410 kts | 269° |
| 2026-04-22 02:04 | 33.83120 | -115.47813 | 31982 ft | 420 kts | 284° |
| 2026-04-22 02:05 | 33.85200 | -115.54406 | 31958 ft | 421 kts | 284° |
| 2026-04-22 02:05 | 33.87298 | -115.60972 | 31967 ft | 420 kts | 284° |
| 2026-04-22 02:06 | 33.89399 | -115.67522 | 31979 ft | 419 kts | 284° |
| 2026-04-22 02:06 | 33.91501 | -115.74071 | 31978 ft | 419 kts | 284° |
| 2026-04-22 02:07 | 33.93587 | -115.80578 | 32003 ft | 419 kts | 284° |
| 2026-04-22 02:07 | 33.95683 | -115.87133 | 32000 ft | 419 kts | 284° |
| 2026-04-22 02:08 | 33.97773 | -115.93684 | 31992 ft | 419 kts | 284° |
| 2026-04-22 02:08 | 33.99858 | -116.00234 | 32001 ft | 419 kts | 284° |
| 2026-04-22 02:09 | 34.01942 | -116.06796 | 31989 ft | 419 kts | 284° |
| 2026-04-22 02:09 | 34.04020 | -116.13350 | 32008 ft | 419 kts | 284° |
| 2026-04-22 02:10 | 34.06098 | -116.19913 | 32005 ft | 419 kts | 284° |
| 2026-04-22 02:10 | 34.08170 | -116.26475 | 32009 ft | 419 kts | 284° |
| 2026-04-22 02:11 | 34.10134 | -116.32715 | 32010 ft | 418 kts | 284° |
| 2026-04-22 02:11 | 34.12196 | -116.39272 | 32014 ft | 417 kts | 284° |
| 2026-04-22 02:12 | 34.14254 | -116.45830 | 32005 ft | 417 kts | 284° |
| 2026-04-22 02:12 | 34.16309 | -116.52392 | 31999 ft | 418 kts | 283° |
| 2026-04-22 02:13 | 34.18360 | -116.58959 | 32021 ft | 417 kts | 283° |
| 2026-04-22 02:13 | 34.20403 | -116.65515 | 32009 ft | 417 kts | 283° |
| 2026-04-22 02:14 | 34.22442 | -116.72056 | 32042 ft | 416 kts | 283° |
| 2026-04-22 02:14 | 34.24481 | -116.78622 | 32030 ft | 416 kts | 283° |
| 2026-04-22 02:15 | 34.26515 | -116.85176 | 32064 ft | 416 kts | 283° |
| 2026-04-22 02:15 | 34.28535 | -116.91689 | 32062 ft | 416 kts | 283° |
| 2026-04-22 02:16 | 34.30557 | -116.98231 | 32085 ft | 415 kts | 283° |
| 2026-04-22 02:16 | 34.32565 | -117.04763 | 32091 ft | 414 kts | 283° |
| 2026-04-22 02:17 | 34.34549 | -117.11300 | 32094 ft | 414 kts | 283° |
| 2026-04-22 02:17 | 34.36538 | -117.17838 | 32094 ft | 414 kts | 283° |
| 2026-04-22 02:18 | 34.38524 | -117.24362 | 32089 ft | 413 kts | 283° |
| 2026-04-22 02:18 | 34.40502 | -117.30876 | 32095 ft | 412 kts | 282° |
| 2026-04-22 02:19 | 34.42478 | -117.37397 | 32092 ft | 412 kts | 283° |
| 2026-04-22 02:19 | 34.44448 | -117.43909 | 32093 ft | 411 kts | 283° |
| 2026-04-22 02:20 | 34.46408 | -117.50407 | 32093 ft | 410 kts | 282° |
| 2026-04-22 02:20 | 34.48365 | -117.56904 | 32093 ft | 410 kts | 282° |
| 2026-04-22 02:21 | 34.50317 | -117.63407 | 32095 ft | 410 kts | 282° |
| 2026-04-22 02:21 | 34.52266 | -117.69911 | 32088 ft | 410 kts | 282° |
| 2026-04-22 02:22 | 34.54212 | -117.76415 | 32085 ft | 411 kts | 282° |
| 2026-04-22 02:22 | 34.56118 | -117.82794 | 32093 ft | 410 kts | 282° |
| 2026-04-22 02:23 | 34.58043 | -117.89264 | 32093 ft | 410 kts | 282° |
| 2026-04-22 02:23 | 34.59977 | -117.95777 | 32082 ft | 410 kts | 282° |
| 2026-04-22 02:24 | 34.61909 | -118.02289 | 32083 ft | 410 kts | 282° |
| 2026-04-22 02:24 | 34.64595 | -118.08432 | 32100 ft | 427 kts | 300° |
| 2026-04-22 02:25 | 34.68413 | -118.13992 | 32080 ft | 428 kts | 301° |
| 2026-04-22 02:25 | 34.72251 | -118.19533 | 32072 ft | 428 kts | 301° |
| 2026-04-22 02:26 | 34.76095 | -118.25083 | 32071 ft | 430 kts | 301° |
| 2026-04-22 02:26 | 34.79946 | -118.30645 | 32069 ft | 429 kts | 301° |
| 2026-04-22 02:27 | 34.83786 | -118.36200 | 32082 ft | 429 kts | 300° |
| 2026-04-22 02:27 | 34.90767 | -118.46312 | 32087 ft | 429 kts | 300° |
| 2026-04-22 02:28 | 34.98432 | -118.57445 | 32101 ft | 428 kts | 300° |
| 2026-04-22 02:28 | 35.01979 | -118.63173 | 32110 ft | 416 kts | 292° |
| 2026-04-22 02:28 | 35.04056 | -118.67505 | 32112 ft | 414 kts | 290° |
| 2026-04-22 02:29 | 35.09032 | -118.80049 | 32079 ft | 410 kts | 287° |
| 2026-04-22 02:29 | 35.13946 | -118.92588 | 32073 ft | 409 kts | 287° |
| 2026-04-22 02:30 | 35.18810 | -119.05036 | 32061 ft | 408 kts | 287° |
| 2026-04-22 02:30 | 35.23675 | -119.17533 | 32064 ft | 407 kts | 287° |
| 2026-04-22 02:31 | 35.28505 | -119.29985 | 32065 ft | 405 kts | 287° |
| 2026-04-22 02:31 | 35.33302 | -119.42407 | 32065 ft | 402 kts | 287° |
| 2026-04-22 02:32 | 35.38066 | -119.54779 | 32071 ft | 401 kts | 287° |
| 2026-04-22 02:32 | 35.42791 | -119.67108 | 32088 ft | 399 kts | 287° |
| 2026-04-22 02:33 | 35.47490 | -119.79406 | 32077 ft | 397 kts | 286° |
| 2026-04-22 02:33 | 35.52160 | -119.91683 | 32094 ft | 396 kts | 286° |
| 2026-04-22 02:34 | 35.56806 | -120.03942 | 32099 ft | 394 kts | 286° |
| 2026-04-22 02:34 | 35.61413 | -120.16148 | 32116 ft | 394 kts | 286° |
| 2026-04-22 02:35 | 35.66014 | -120.28369 | 32136 ft | 393 kts | 286° |
| 2026-04-22 02:35 | 35.70629 | -120.40568 | 32122 ft | 393 kts | 287° |
| 2026-04-22 02:36 | 35.75051 | -120.52134 | 32127 ft | 392 kts | 287° |
| 2026-04-22 02:36 | 35.77353 | -120.58174 | 32136 ft | 392 kts | 287° |
| 2026-04-22 02:37 | 35.79665 | -120.64253 | 32127 ft | 393 kts | 287° |
| 2026-04-22 02:37 | 35.81976 | -120.70336 | 32134 ft | 392 kts | 287° |
| 2026-04-22 02:38 | 35.84280 | -120.76417 | 32125 ft | 392 kts | 287° |
| 2026-04-22 02:38 | 35.86581 | -120.82495 | 32111 ft | 391 kts | 287° |
| 2026-04-22 02:39 | 35.88872 | -120.88569 | 32122 ft | 390 kts | 287° |
| 2026-04-22 02:39 | 35.91155 | -120.94632 | 32115 ft | 388 kts | 287° |
| 2026-04-22 02:40 | 35.93433 | -121.00681 | 32126 ft | 389 kts | 287° |
| 2026-04-22 02:40 | 35.95704 | -121.06739 | 32116 ft | 388 kts | 287° |
| 2026-04-22 02:41 | 35.97967 | -121.12786 | 32121 ft | 387 kts | 287° |
| 2026-04-22 02:41 | 36.00222 | -121.18820 | 32107 ft | 387 kts | 287° |
| 2026-04-22 02:42 | 36.02484 | -121.24890 | 32094 ft | 393 kts | 288° |
| 2026-04-22 02:42 | 36.04765 | -121.31010 | 32085 ft | 391 kts | 288° |
| 2026-04-22 02:43 | 36.07626 | -121.36673 | 32133 ft | 405 kts | 308° |
| 2026-04-22 02:43 | 36.09936 | -121.38789 | 32151 ft | 417 kts | 316° |
| 2026-04-22 02:43 | 36.12388 | -121.40724 | 32089 ft | 418 kts | 317° |
| 2026-04-22 02:43 | 36.14829 | -121.42632 | 31877 ft | 410 kts | 316° |
| 2026-04-22 02:44 | 36.17202 | -121.44482 | 31560 ft | 395 kts | 316° |
| 2026-04-22 02:44 | 36.19489 | -121.46270 | 31025 ft | 384 kts | 316° |
| 2026-04-22 02:44 | 36.21717 | -121.48023 | 30625 ft | 376 kts | 315° |
| 2026-04-22 02:44 | 36.23922 | -121.49754 | 30048 ft | 374 kts | 315° |
| 2026-04-22 02:45 | 36.26111 | -121.51475 | 29578 ft | 371 kts | 315° |
| 2026-04-22 02:45 | 36.28268 | -121.53172 | 29055 ft | 373 kts | 315° |
| 2026-04-22 02:45 | 36.30458 | -121.54891 | 28563 ft | 372 kts | 315° |
| 2026-04-22 02:45 | 36.32641 | -121.56606 | 28036 ft | 371 kts | 315° |
| 2026-04-22 02:46 | 36.34847 | -121.58346 | 27562 ft | 372 kts | 315° |
| 2026-04-22 02:46 | 36.37029 | -121.60068 | 27084 ft | 372 kts | 315° |
| 2026-04-22 02:46 | 36.39177 | -121.61756 | 26599 ft | 368 kts | 315° |
| 2026-04-22 02:46 | 36.41328 | -121.63450 | 26086 ft | 365 kts | 315° |
| 2026-04-22 02:47 | 36.43464 | -121.65127 | 25601 ft | 361 kts | 315° |
| 2026-04-22 02:47 | 36.45574 | -121.66789 | 25116 ft | 358 kts | 315° |
| 2026-04-22 02:47 | 36.47669 | -121.68441 | 24671 ft | 355 kts | 315° |
| 2026-04-22 02:47 | 36.49747 | -121.70078 | 24199 ft | 352 kts | 316° |
| 2026-04-22 02:48 | 36.51806 | -121.71702 | 23684 ft | 349 kts | 316° |
| 2026-04-22 02:48 | 36.53842 | -121.73313 | 23266 ft | 346 kts | 316° |
| 2026-04-22 02:48 | 36.55876 | -121.74924 | 22785 ft | 347 kts | 316° |
| 2026-04-22 02:48 | 36.57914 | -121.76539 | 22361 ft | 348 kts | 316° |
| 2026-04-22 02:49 | 36.59957 | -121.78157 | 21875 ft | 348 kts | 317° |
| 2026-04-22 02:49 | 36.61996 | -121.79772 | 21410 ft | 348 kts | 317° |
| 2026-04-22 02:49 | 36.64033 | -121.81386 | 20958 ft | 347 kts | 317° |
| 2026-04-22 02:49 | 36.66064 | -121.82997 | 20496 ft | 345 kts | 318° |
| 2026-04-22 02:50 | 36.68090 | -121.84604 | 20037 ft | 345 kts | 318° |
| 2026-04-22 02:50 | 36.70110 | -121.86212 | 19579 ft | 344 kts | 318° |
| 2026-04-22 02:50 | 36.72125 | -121.87813 | 19123 ft | 342 kts | 319° |
| 2026-04-22 02:50 | 36.73468 | -121.88836 | 18821 ft | 346 kts | 323° |
| 2026-04-22 02:51 | 36.75776 | -121.89882 | 18362 ft | 357 kts | 337° |
| 2026-04-22 02:51 | 36.78213 | -121.90574 | 17862 ft | 360 kts | 340° |
| 2026-04-22 02:51 | 36.80661 | -121.91238 | 17300 ft | 359 kts | 340° |
| 2026-04-22 02:51 | 36.83086 | -121.91906 | 16852 ft | 356 kts | 340° |
| 2026-04-22 02:52 | 36.85497 | -121.92575 | 16389 ft | 354 kts | 341° |
| 2026-04-22 02:52 | 36.87895 | -121.93244 | 15904 ft | 352 kts | 341° |
| 2026-04-22 02:52 | 36.90286 | -121.93915 | 15450 ft | 352 kts | 341° |
| 2026-04-22 02:52 | 36.92666 | -121.94583 | 14990 ft | 350 kts | 341° |
| 2026-04-22 02:53 | 36.95028 | -121.95250 | 14509 ft | 345 kts | 341° |
| 2026-04-22 02:53 | 36.97304 | -121.96022 | 14071 ft | 333 kts | 336° |
| 2026-04-22 02:53 | 36.99471 | -121.96910 | 13616 ft | 323 kts | 336° |
| 2026-04-22 02:53 | 37.01586 | -121.97750 | 13184 ft | 314 kts | 337° |
| 2026-04-22 02:54 | 37.03656 | -121.98571 | 12801 ft | 311 kts | 337° |
| 2026-04-22 02:54 | 37.05713 | -121.99392 | 12364 ft | 311 kts | 337° |
| 2026-04-22 02:54 | 37.07769 | -122.00206 | 11965 ft | 309 kts | 337° |
| 2026-04-22 02:54 | 37.09816 | -122.01010 | 11558 ft | 307 kts | 338° |
| 2026-04-22 02:55 | 37.11848 | -122.01806 | 11142 ft | 305 kts | 338° |
| 2026-04-22 02:55 | 37.13864 | -122.02581 | 10723 ft | 302 kts | 338° |
| 2026-04-22 02:55 | 37.15856 | -122.03373 | 10351 ft | 300 kts | 338° |
| 2026-04-22 02:55 | 37.17854 | -122.04133 | 9911 ft | 299 kts | 338° |
| 2026-04-22 02:56 | 37.19746 | -122.04878 | 9560 ft | 296 kts | 338° |
| 2026-04-22 02:56 | 37.21700 | -122.05652 | 9179 ft | 294 kts | 338° |
| 2026-04-22 02:56 | 37.23640 | -122.06422 | 8721 ft | 292 kts | 338° |
| 2026-04-22 02:56 | 37.25560 | -122.07186 | 8399 ft | 287 kts | 338° |
| 2026-04-22 02:57 | 37.27462 | -122.07912 | 7992 ft | 284 kts | 339° |
| 2026-04-22 02:57 | 37.29334 | -122.08637 | 7609 ft | 279 kts | 338° |
| 2026-04-22 02:57 | 37.31171 | -122.09371 | 7296 ft | 276 kts | 338° |
| 2026-04-22 02:57 | 37.33011 | -122.10102 | 6883 ft | 277 kts | 339° |
| 2026-04-22 02:58 | 37.34839 | -122.10824 | 6548 ft | 274 kts | 338° |
| 2026-04-22 02:58 | 37.36658 | -122.11543 | 6157 ft | 274 kts | 339° |
| 2026-04-22 02:58 | 37.38471 | -122.12249 | 5793 ft | 272 kts | 340° |
| 2026-04-22 02:58 | 37.40300 | -122.12875 | 5414 ft | 272 kts | 341° |
| 2026-04-22 02:59 | 37.42128 | -122.13484 | 5046 ft | 271 kts | 341° |
| 2026-04-22 02:59 | 37.43689 | -122.14016 | 4729 ft | 271 kts | 341° |
| 2026-04-22 02:59 | 37.45500 | -122.14648 | 4366 ft | 269 kts | 341° |
| 2026-04-22 02:59 | 37.47305 | -122.15239 | 3965 ft | 263 kts | 342° |
| 2026-04-22 03:00 | 37.49015 | -122.15790 | 3615 ft | 244 kts | 342° |
| 2026-04-22 03:00 | 37.50620 | -122.16307 | 3299 ft | 232 kts | 341° |
| 2026-04-22 03:00 | 37.52150 | -122.16811 | 3051 ft | 224 kts | 341° |
| 2026-04-22 03:00 | 37.53511 | -122.17590 | 2759 ft | 210 kts | 315° |
| 2026-04-22 03:01 | 37.54335 | -122.19014 | 2603 ft | 199 kts | 296° |
| 2026-04-22 03:01 | 37.55003 | -122.20546 | 2509 ft | 198 kts | 295° |
| 2026-04-22 03:01 | 37.55641 | -122.22052 | 2390 ft | 192 kts | 295° |
| 2026-04-22 03:01 | 37.56261 | -122.23535 | 2153 ft | 193 kts | 295° |
| 2026-04-22 03:02 | 37.56891 | -122.25036 | 1898 ft | 192 kts | 295° |
| 2026-04-22 03:02 | 37.57504 | -122.26492 | 1649 ft | 184 kts | 295° |
| 2026-04-22 03:02 | 37.58088 | -122.27896 | 1425 ft | 180 kts | 295° |
| 2026-04-22 03:02 | 37.58674 | -122.29295 | 1204 ft | 181 kts | 295° |
| 2026-04-22 03:03 | 37.59258 | -122.30682 | 960 ft | 177 kts | 296° |
| 2026-04-22 03:03 | 37.59635 | -122.32114 | 662 ft | 165 kts | 285° |
| 2026-04-22 03:03 | 37.60090 | -122.33333 | 461 ft | 141 kts | 300° |
| 2026-04-22 03:03 | 37.60519 | -122.34312 | 302 ft | 118 kts | 296° |
| 2026-04-22 03:04 | 37.60895 | -122.35186 | 153 ft | 111 kts | 296° |
| 2026-04-22 03:04 | 37.61253 | -122.36038 | 46 ft | 111 kts | 296° |
| 2026-04-22 03:04 | 37.61579 | -122.36839 | 20 ft | 91 kts | 299° |
| 2026-04-22 03:04 | 37.61841 | -122.37442 | 20 ft | 70 kts | 299° |
| 2026-04-22 03:05 | 37.62001 | -122.37922 | 20 ft | 31 kts | 258° |
| 2026-04-22 03:05 | 37.61931 | -122.38015 | 20 ft | 9 kts | 220° |
| 2026-04-22 03:05 | 37.61918 | -122.38093 | 20 ft | 11 kts | 281° |
| 2026-04-22 03:05 | 37.61949 | -122.38175 | 20 ft | 11 kts | 302° |
| 2026-04-22 03:06 | 37.61993 | -122.38268 | 20 ft | 13 kts | 297° |
| 2026-04-22 03:06 | 37.62039 | -122.38381 | 20 ft | 16 kts | 297° |
| 2026-04-22 03:06 | 37.62091 | -122.38512 | 20 ft | 17 kts | 298° |
| 2026-04-22 03:06 | 37.62153 | -122.38653 | 20 ft | 19 kts | 298° |
| 2026-04-22 03:07 | 37.62220 | -122.38810 | 20 ft | 21 kts | 297° |
| 2026-04-22 03:07 | 37.62259 | -122.38971 | 20 ft | 18 kts | 255° |
| 2026-04-22 03:07 | 37.62205 | -122.39117 | 20 ft | 19 kts | 223° |
| 2026-04-22 03:07 | 37.62085 | -122.39200 | 20 ft | 19 kts | 199° |
| 2026-04-22 03:08 | 37.61995 | -122.39111 | 21 ft | 19 kts | 118° |
| 2026-04-22 03:08 | 37.61928 | -122.38955 | 21 ft | 21 kts | 119° |
| 2026-04-22 03:08 | 37.61909 | -122.38839 | 20 ft | 12 kts | 86° |
| 2026-04-22 03:08 | 37.61896 | -122.38778 | 20 ft | 3 kts | 146° |
| 2026-04-22 03:09 | 37.61872 | -122.38767 | 20 ft | 4 kts | 160° |
| 2026-04-22 03:09 | 37.61858 | -122.38760 | 20 ft | 1 kts | 159° |
| 2026-04-22 03:09 | 37.61853 | -122.38758 | 20 ft | 0 kts | 159° |